sensor_id;sensor_type;location;lat;lon;timestamp;P1;durP1;ratioP1;P2;durP2;ratioP2
7917;SDS011;4004;42.624;23.386;2023-02-15T00:01:55;37.53;;;27.87;;
7917;SDS011;4004;42.624;23.386;2023-02-15T00:04:23;38.30;;;28.00;;
7917;SDS011;4004;42.624;23.386;2023-02-15T00:07:11;37.03;;;28.30;;
7917;SDS011;4004;42.624;23.386;2023-02-15T00:09:39;37.77;;;28.20;;
7917;SDS011;4004;42.624;23.386;2023-02-15T00:12:05;35.23;;;26.87;;
7917;SDS011;4004;42.624;23.386;2023-02-15T00:14:33;34.97;;;27.20;;
7917;SDS011;4004;42.624;23.386;2023-02-15T00:17:00;38.63;;;28.03;;
7917;SDS011;4004;42.624;23.386;2023-02-15T00:19:27;34.80;;;26.40;;
7917;SDS011;4004;42.624;23.386;2023-02-15T00:21:54;37.67;;;27.47;;
7917;SDS011;4004;42.624;23.386;2023-02-15T00:24:20;35.80;;;27.33;;
7917;SDS011;4004;42.624;23.386;2023-02-15T00:26:47;39.13;;;28.40;;
7917;SDS011;4004;42.624;23.386;2023-02-15T00:29:14;38.63;;;27.83;;
7917;SDS011;4004;42.624;23.386;2023-02-15T00:31:43;38.33;;;27.43;;
7917;SDS011;4004;42.624;23.386;2023-02-15T00:34:11;38.73;;;28.97;;
7917;SDS011;4004;42.624;23.386;2023-02-15T00:36:39;36.63;;;26.53;;
7917;SDS011;4004;42.624;23.386;2023-02-15T00:39:06;38.07;;;28.23;;
7917;SDS011;4004;42.624;23.386;2023-02-15T00:41:32;35.30;;;26.47;;
7917;SDS011;4004;42.624;23.386;2023-02-15T00:44:00;36.23;;;27.37;;
7917;SDS011;4004;42.624;23.386;2023-02-15T00:46:26;33.40;;;26.43;;
7917;SDS011;4004;42.624;23.386;2023-02-15T00:48:55;37.60;;;27.67;;
7917;SDS011;4004;42.624;23.386;2023-02-15T00:51:21;35.33;;;26.47;;
7917;SDS011;4004;42.624;23.386;2023-02-15T00:53:48;36.00;;;25.80;;
7917;SDS011;4004;42.624;23.386;2023-02-15T00:56:15;40.40;;;27.27;;
7917;SDS011;4004;42.624;23.386;2023-02-15T00:58:42;35.30;;;26.53;;
7917;SDS011;4004;42.624;23.386;2023-02-15T01:01:10;36.40;;;26.47;;
7917;SDS011;4004;42.624;23.386;2023-02-15T01:03:40;36.47;;;26.53;;
7917;SDS011;4004;42.624;23.386;2023-02-15T01:06:09;34.87;;;25.40;;
7917;SDS011;4004;42.624;23.386;2023-02-15T01:08:36;36.07;;;27.03;;
7917;SDS011;4004;42.624;23.386;2023-02-15T01:11:03;34.55;;;26.40;;
7917;SDS011;4004;42.624;23.386;2023-02-15T01:13:30;35.30;;;26.83;;
7917;SDS011;4004;42.624;23.386;2023-02-15T01:15:57;37.17;;;26.17;;
7917;SDS011;4004;42.624;23.386;2023-02-15T01:18:24;35.23;;;27.20;;
7917;SDS011;4004;42.624;23.386;2023-02-15T01:20:51;34.87;;;25.33;;
7917;SDS011;4004;42.624;23.386;2023-02-15T01:23:20;37.67;;;26.73;;
7917;SDS011;4004;42.624;23.386;2023-02-15T01:25:47;35.13;;;27.00;;
7917;SDS011;4004;42.624;23.386;2023-02-15T01:28:13;37.65;;;26.45;;
7917;SDS011;4004;42.624;23.386;2023-02-15T01:30:40;33.43;;;25.47;;
7917;SDS011;4004;42.624;23.386;2023-02-15T01:33:07;37.10;;;27.10;;
7917;SDS011;4004;42.624;23.386;2023-02-15T01:35:42;34.67;;;26.30;;
7917;SDS011;4004;42.624;23.386;2023-02-15T01:38:10;34.42;;;26.95;;
7917;SDS011;4004;42.624;23.386;2023-02-15T01:40:38;33.83;;;25.67;;
7917;SDS011;4004;42.624;23.386;2023-02-15T01:43:07;34.42;;;25.75;;
7917;SDS011;4004;42.624;23.386;2023-02-15T01:45:36;36.57;;;25.97;;
7917;SDS011;4004;42.624;23.386;2023-02-15T01:48:04;36.77;;;25.80;;
7917;SDS011;4004;42.624;23.386;2023-02-15T01:50:43;33.65;;;26.25;;
7917;SDS011;4004;42.624;23.386;2023-02-15T01:53:13;35.08;;;26.83;;
7917;SDS011;4004;42.624;23.386;2023-02-15T01:55:47;35.00;;;25.60;;
7917;SDS011;4004;42.624;23.386;2023-02-15T01:58:16;33.70;;;25.33;;
7917;SDS011;4004;42.624;23.386;2023-02-15T02:00:45;34.23;;;25.57;;
7917;SDS011;4004;42.624;23.386;2023-02-15T02:03:11;33.67;;;25.27;;
7917;SDS011;4004;42.624;23.386;2023-02-15T02:05:39;36.45;;;26.90;;
7917;SDS011;4004;42.624;23.386;2023-02-15T02:08:07;36.93;;;25.90;;
7917;SDS011;4004;42.624;23.386;2023-02-15T02:10:35;34.40;;;25.85;;
7917;SDS011;4004;42.624;23.386;2023-02-15T02:13:03;36.80;;;26.97;;
7917;SDS011;4004;42.624;23.386;2023-02-15T02:15:33;36.60;;;27.70;;
7917;SDS011;4004;42.624;23.386;2023-02-15T02:18:10;37.40;;;28.47;;
7917;SDS011;4004;42.624;23.386;2023-02-15T02:20:58;35.47;;;26.42;;
7917;SDS011;4004;42.624;23.386;2023-02-15T02:23:49;34.30;;;26.20;;
7917;SDS011;4004;42.624;23.386;2023-02-15T02:26:48;31.40;;;25.53;;
7917;SDS011;4004;42.624;23.386;2023-02-15T02:29:44;33.83;;;26.27;;
7917;SDS011;4004;42.624;23.386;2023-02-15T02:35:27;33.70;;;25.67;;
7917;SDS011;4004;42.624;23.386;2023-02-15T02:38:02;35.08;;;25.83;;
7917;SDS011;4004;42.624;23.386;2023-02-15T02:40:39;34.35;;;26.27;;
7917;SDS011;4004;42.624;23.386;2023-02-15T02:43:17;36.87;;;25.10;;
7917;SDS011;4004;42.624;23.386;2023-02-15T02:45:50;31.38;;;24.67;;
7917;SDS011;4004;42.624;23.386;2023-02-15T02:48:22;33.78;;;24.55;;
7917;SDS011;4004;42.624;23.386;2023-02-15T02:50:52;33.93;;;26.10;;
7917;SDS011;4004;42.624;23.386;2023-02-15T02:53:19;33.80;;;25.63;;
7917;SDS011;4004;42.624;23.386;2023-02-15T02:55:47;32.88;;;25.13;;
7917;SDS011;4004;42.624;23.386;2023-02-15T02:58:19;32.43;;;25.00;;
7917;SDS011;4004;42.624;23.386;2023-02-15T03:00:50;37.03;;;25.47;;
7917;SDS011;4004;42.624;23.386;2023-02-15T03:03:23;31.43;;;23.83;;
7917;SDS011;4004;42.624;23.386;2023-02-15T03:05:54;32.77;;;25.17;;
7917;SDS011;4004;42.624;23.386;2023-02-15T03:08:26;31.63;;;25.17;;
7917;SDS011;4004;42.624;23.386;2023-02-15T03:10:57;34.23;;;25.27;;
7917;SDS011;4004;42.624;23.386;2023-02-15T03:13:26;31.30;;;24.30;;
7917;SDS011;4004;42.624;23.386;2023-02-15T03:15:54;31.93;;;23.47;;
7917;SDS011;4004;42.624;23.386;2023-02-15T03:18:42;34.23;;;25.50;;
7917;SDS011;4004;42.624;23.386;2023-02-15T03:21:17;31.33;;;23.57;;
7917;SDS011;4004;42.624;23.386;2023-02-15T03:23:48;30.03;;;23.93;;
7917;SDS011;4004;42.624;23.386;2023-02-15T03:26:18;30.70;;;22.73;;
7917;SDS011;4004;42.624;23.386;2023-02-15T03:28:47;29.40;;;22.93;;
7917;SDS011;4004;42.624;23.386;2023-02-15T03:31:17;28.23;;;22.00;;
7917;SDS011;4004;42.624;23.386;2023-02-15T03:33:53;30.10;;;23.47;;
7917;SDS011;4004;42.624;23.386;2023-02-15T03:36:22;31.63;;;23.77;;
7917;SDS011;4004;42.624;23.386;2023-02-15T03:38:56;30.87;;;23.63;;
7917;SDS011;4004;42.624;23.386;2023-02-15T03:41:29;30.30;;;23.43;;
7917;SDS011;4004;42.624;23.386;2023-02-15T03:44:01;31.83;;;23.70;;
7917;SDS011;4004;42.624;23.386;2023-02-15T03:46:33;27.60;;;22.03;;
7917;SDS011;4004;42.624;23.386;2023-02-15T03:49:08;28.97;;;22.63;;
7917;SDS011;4004;42.624;23.386;2023-02-15T03:51:40;30.87;;;22.77;;
7917;SDS011;4004;42.624;23.386;2023-02-15T03:54:08;27.97;;;22.63;;
7917;SDS011;4004;42.624;23.386;2023-02-15T03:56:39;28.33;;;22.03;;
7917;SDS011;4004;42.624;23.386;2023-02-15T03:59:27;28.70;;;21.87;;
7917;SDS011;4004;42.624;23.386;2023-02-15T04:02:13;30.23;;;23.50;;
7917;SDS011;4004;42.624;23.386;2023-02-15T04:04:48;30.40;;;22.73;;
7917;SDS011;4004;42.624;23.386;2023-02-15T04:07:15;30.43;;;23.67;;
7917;SDS011;4004;42.624;23.386;2023-02-15T04:09:41;31.13;;;23.57;;
7917;SDS011;4004;42.624;23.386;2023-02-15T04:12:26;30.47;;;22.93;;
7917;SDS011;4004;42.624;23.386;2023-02-15T04:14:52;32.60;;;23.90;;
7917;SDS011;4004;42.624;23.386;2023-02-15T04:17:37;30.07;;;22.17;;
7917;SDS011;4004;42.624;23.386;2023-02-15T04:20:06;29.53;;;21.87;;
7917;SDS011;4004;42.624;23.386;2023-02-15T04:22:52;30.57;;;22.80;;
7917;SDS011;4004;42.624;23.386;2023-02-15T04:25:36;29.30;;;22.53;;
7917;SDS011;4004;42.624;23.386;2023-02-15T04:28:03;28.93;;;22.77;;
7917;SDS011;4004;42.624;23.386;2023-02-15T04:30:29;28.90;;;21.60;;
7917;SDS011;4004;42.624;23.386;2023-02-15T04:32:56;28.70;;;22.90;;
7917;SDS011;4004;42.624;23.386;2023-02-15T04:35:24;28.83;;;22.40;;
7917;SDS011;4004;42.624;23.386;2023-02-15T04:37:51;28.67;;;21.70;;
7917;SDS011;4004;42.624;23.386;2023-02-15T04:40:18;30.80;;;23.67;;
7917;SDS011;4004;42.624;23.386;2023-02-15T04:42:46;30.37;;;22.53;;
7917;SDS011;4004;42.624;23.386;2023-02-15T04:45:14;29.00;;;22.87;;
7917;SDS011;4004;42.624;23.386;2023-02-15T04:47:40;31.63;;;24.37;;
7917;SDS011;4004;42.624;23.386;2023-02-15T04:50:07;29.43;;;24.03;;
7917;SDS011;4004;42.624;23.386;2023-02-15T04:52:36;31.47;;;23.37;;
7917;SDS011;4004;42.624;23.386;2023-02-15T04:55:03;32.13;;;22.73;;
7917;SDS011;4004;42.624;23.386;2023-02-15T04:57:30;30.37;;;23.53;;
7917;SDS011;4004;42.624;23.386;2023-02-15T04:59:57;28.47;;;22.23;;
7917;SDS011;4004;42.624;23.386;2023-02-15T05:02:24;29.37;;;22.43;;
7917;SDS011;4004;42.624;23.386;2023-02-15T05:04:50;32.60;;;23.50;;
7917;SDS011;4004;42.624;23.386;2023-02-15T05:07:17;30.03;;;22.67;;
7917;SDS011;4004;42.624;23.386;2023-02-15T05:09:46;31.23;;;21.80;;
7917;SDS011;4004;42.624;23.386;2023-02-15T05:12:13;31.23;;;21.87;;
7917;SDS011;4004;42.624;23.386;2023-02-15T05:14:40;33.17;;;23.53;;
7917;SDS011;4004;42.624;23.386;2023-02-15T05:17:06;30.30;;;22.37;;
7917;SDS011;4004;42.624;23.386;2023-02-15T05:19:33;27.20;;;21.10;;
7917;SDS011;4004;42.624;23.386;2023-02-15T05:22:00;61.77;;;41.10;;
7917;SDS011;4004;42.624;23.386;2023-02-15T05:24:26;30.33;;;24.47;;
7917;SDS011;4004;42.624;23.386;2023-02-15T05:27:12;29.57;;;22.63;;
7917;SDS011;4004;42.624;23.386;2023-02-15T05:29:56;30.93;;;23.03;;
7917;SDS011;4004;42.624;23.386;2023-02-15T05:32:23;30.53;;;21.70;;
7917;SDS011;4004;42.624;23.386;2023-02-15T05:34:50;30.13;;;22.33;;
7917;SDS011;4004;42.624;23.386;2023-02-15T05:37:16;29.17;;;23.53;;
7917;SDS011;4004;42.624;23.386;2023-02-15T05:39:43;32.13;;;23.20;;
7917;SDS011;4004;42.624;23.386;2023-02-15T05:42:11;37.00;;;27.60;;
7917;SDS011;4004;42.624;23.386;2023-02-15T05:44:38;30.03;;;22.77;;
7917;SDS011;4004;42.624;23.386;2023-02-15T05:47:05;30.83;;;21.93;;
7917;SDS011;4004;42.624;23.386;2023-02-15T05:49:32;34.17;;;24.33;;
7917;SDS011;4004;42.624;23.386;2023-02-15T05:51:59;31.43;;;24.13;;
7917;SDS011;4004;42.624;23.386;2023-02-15T05:54:26;32.47;;;24.37;;
7917;SDS011;4004;42.624;23.386;2023-02-15T05:56:54;28.70;;;21.07;;
7917;SDS011;4004;42.624;23.386;2023-02-15T05:59:22;28.20;;;21.53;;
7917;SDS011;4004;42.624;23.386;2023-02-15T06:01:49;28.93;;;22.33;;
7917;SDS011;4004;42.624;23.386;2023-02-15T06:04:15;29.47;;;22.70;;
7917;SDS011;4004;42.624;23.386;2023-02-15T06:06:42;61.50;;;42.27;;
7917;SDS011;4004;42.624;23.386;2023-02-15T06:09:09;31.30;;;23.67;;
7917;SDS011;4004;42.624;23.386;2023-02-15T06:11:36;32.50;;;23.00;;
7917;SDS011;4004;42.624;23.386;2023-02-15T06:14:03;29.10;;;22.77;;
7917;SDS011;4004;42.624;23.386;2023-02-15T06:16:31;27.90;;;21.67;;
7917;SDS011;4004;42.624;23.386;2023-02-15T06:18:58;29.40;;;21.87;;
7917;SDS011;4004;42.624;23.386;2023-02-15T06:21:26;28.77;;;21.97;;
7917;SDS011;4004;42.624;23.386;2023-02-15T06:23:53;28.60;;;21.43;;
7917;SDS011;4004;42.624;23.386;2023-02-15T06:26:19;27.63;;;20.70;;
7917;SDS011;4004;42.624;23.386;2023-02-15T06:28:46;26.47;;;20.67;;
7917;SDS011;4004;42.624;23.386;2023-02-15T06:31:13;27.40;;;22.13;;
7917;SDS011;4004;42.624;23.386;2023-02-15T06:33:41;24.07;;;19.73;;
7917;SDS011;4004;42.624;23.386;2023-02-15T06:36:08;27.37;;;20.87;;
7917;SDS011;4004;42.624;23.386;2023-02-15T06:38:35;30.67;;;20.10;;
7917;SDS011;4004;42.624;23.386;2023-02-15T06:41:01;27.57;;;19.47;;
7917;SDS011;4004;42.624;23.386;2023-02-15T06:43:28;25.77;;;19.37;;
7917;SDS011;4004;42.624;23.386;2023-02-15T06:45:57;27.43;;;20.00;;
7917;SDS011;4004;42.624;23.386;2023-02-15T06:48:24;24.53;;;18.57;;
7917;SDS011;4004;42.624;23.386;2023-02-15T06:50:52;26.87;;;19.80;;
7917;SDS011;4004;42.624;23.386;2023-02-15T06:53:19;46.57;;;34.63;;
7917;SDS011;4004;42.624;23.386;2023-02-15T06:55:46;29.10;;;20.60;;
7917;SDS011;4004;42.624;23.386;2023-02-15T06:58:12;22.70;;;18.17;;
7917;SDS011;4004;42.624;23.386;2023-02-15T07:00:39;25.90;;;19.60;;
7917;SDS011;4004;42.624;23.386;2023-02-15T07:03:06;23.67;;;18.20;;
7917;SDS011;4004;42.624;23.386;2023-02-15T07:05:33;20.50;;;16.90;;
7917;SDS011;4004;42.624;23.386;2023-02-15T07:08:01;24.10;;;17.83;;
7917;SDS011;4004;42.624;23.386;2023-02-15T07:10:28;22.40;;;17.47;;
7917;SDS011;4004;42.624;23.386;2023-02-15T07:12:55;24.37;;;18.17;;
7917;SDS011;4004;42.624;23.386;2023-02-15T07:15:21;24.87;;;19.27;;
7917;SDS011;4004;42.624;23.386;2023-02-15T07:17:48;21.60;;;16.50;;
7917;SDS011;4004;42.624;23.386;2023-02-15T07:20:15;20.23;;;16.33;;
7917;SDS011;4004;42.624;23.386;2023-02-15T07:22:44;22.30;;;16.87;;
7917;SDS011;4004;42.624;23.386;2023-02-15T07:25:12;19.40;;;16.00;;
7917;SDS011;4004;42.624;23.386;2023-02-15T07:27:39;21.20;;;15.83;;
7917;SDS011;4004;42.624;23.386;2023-02-15T07:30:08;19.30;;;16.00;;
7917;SDS011;4004;42.624;23.386;2023-02-15T07:32:37;25.63;;;16.13;;
7917;SDS011;4004;42.624;23.386;2023-02-15T07:35:24;20.97;;;17.27;;
7917;SDS011;4004;42.624;23.386;2023-02-15T07:37:51;20.83;;;16.43;;
7917;SDS011;4004;42.624;23.386;2023-02-15T07:40:19;19.17;;;15.13;;
7917;SDS011;4004;42.624;23.386;2023-02-15T07:42:48;22.63;;;16.33;;
7917;SDS011;4004;42.624;23.386;2023-02-15T07:45:16;19.53;;;15.50;;
7917;SDS011;4004;42.624;23.386;2023-02-15T07:47:43;19.63;;;14.80;;
7917;SDS011;4004;42.624;23.386;2023-02-15T07:50:10;16.07;;;13.47;;
7917;SDS011;4004;42.624;23.386;2023-02-15T07:52:37;18.27;;;14.93;;
7917;SDS011;4004;42.624;23.386;2023-02-15T07:55:03;20.47;;;14.80;;
7917;SDS011;4004;42.624;23.386;2023-02-15T07:57:32;16.03;;;13.87;;
7917;SDS011;4004;42.624;23.386;2023-02-15T07:59:58;15.47;;;12.73;;
7917;SDS011;4004;42.624;23.386;2023-02-15T08:02:25;16.50;;;14.10;;
7917;SDS011;4004;42.624;23.386;2023-02-15T08:04:53;18.43;;;14.10;;
7917;SDS011;4004;42.624;23.386;2023-02-15T08:07:20;16.97;;;13.40;;
7917;SDS011;4004;42.624;23.386;2023-02-15T08:09:47;19.87;;;14.40;;
7917;SDS011;4004;42.624;23.386;2023-02-15T08:12:14;20.40;;;15.17;;
7917;SDS011;4004;42.624;23.386;2023-02-15T08:14:42;24.13;;;17.10;;
7917;SDS011;4004;42.624;23.386;2023-02-15T08:17:08;22.87;;;15.80;;
7917;SDS011;4004;42.624;23.386;2023-02-15T08:19:35;19.73;;;16.37;;
7917;SDS011;4004;42.624;23.386;2023-02-15T08:22:02;17.87;;;15.57;;
7917;SDS011;4004;42.624;23.386;2023-02-15T08:24:30;24.97;;;14.77;;
7917;SDS011;4004;42.624;23.386;2023-02-15T08:26:59;17.40;;;13.93;;
7917;SDS011;4004;42.624;23.386;2023-02-15T08:29:27;20.77;;;14.20;;
7917;SDS011;4004;42.624;23.386;2023-02-15T08:31:57;41.30;;;16.87;;
7917;SDS011;4004;42.624;23.386;2023-02-15T08:34:27;36.23;;;14.90;;
7917;SDS011;4004;42.624;23.386;2023-02-15T08:36:55;19.80;;;13.63;;
7917;SDS011;4004;42.624;23.386;2023-02-15T08:39:22;18.47;;;14.20;;
7917;SDS011;4004;42.624;23.386;2023-02-15T08:41:49;30.27;;;16.10;;
7917;SDS011;4004;42.624;23.386;2023-02-15T08:44:17;22.90;;;15.50;;
7917;SDS011;4004;42.624;23.386;2023-02-15T08:46:45;22.10;;;17.13;;
7917;SDS011;4004;42.624;23.386;2023-02-15T08:49:15;22.50;;;15.93;;
7917;SDS011;4004;42.624;23.386;2023-02-15T08:51:43;34.73;;;15.77;;
7917;SDS011;4004;42.624;23.386;2023-02-15T08:54:12;17.33;;;14.60;;
7917;SDS011;4004;42.624;23.386;2023-02-15T08:56:40;17.17;;;15.07;;
7917;SDS011;4004;42.624;23.386;2023-02-15T08:59:11;18.10;;;14.77;;
7917;SDS011;4004;42.624;23.386;2023-02-15T09:01:39;30.30;;;15.97;;
7917;SDS011;4004;42.624;23.386;2023-02-15T09:04:07;24.10;;;15.90;;
7917;SDS011;4004;42.624;23.386;2023-02-15T09:06:36;22.03;;;16.37;;
7917;SDS011;4004;42.624;23.386;2023-02-15T09:09:03;20.87;;;17.20;;
7917;SDS011;4004;42.624;23.386;2023-02-15T09:11:32;24.60;;;16.07;;
7917;SDS011;4004;42.624;23.386;2023-02-15T09:14:01;25.93;;;15.73;;
7917;SDS011;4004;42.624;23.386;2023-02-15T09:16:31;26.93;;;15.10;;
7917;SDS011;4004;42.624;23.386;2023-02-15T09:18:59;20.80;;;14.50;;
7917;SDS011;4004;42.624;23.386;2023-02-15T09:21:27;23.60;;;14.93;;
7917;SDS011;4004;42.624;23.386;2023-02-15T09:23:57;20.13;;;15.10;;
7917;SDS011;4004;42.624;23.386;2023-02-15T09:26:26;24.37;;;15.27;;
7917;SDS011;4004;42.624;23.386;2023-02-15T09:28:55;25.67;;;15.87;;
7917;SDS011;4004;42.624;23.386;2023-02-15T09:31:23;19.33;;;15.00;;
7917;SDS011;4004;42.624;23.386;2023-02-15T09:33:51;26.83;;;16.27;;
7917;SDS011;4004;42.624;23.386;2023-02-15T09:36:19;21.33;;;14.20;;
7917;SDS011;4004;42.624;23.386;2023-02-15T09:38:48;18.20;;;14.47;;
7917;SDS011;4004;42.624;23.386;2023-02-15T09:41:27;21.10;;;15.53;;
7917;SDS011;4004;42.624;23.386;2023-02-15T09:44:08;21.20;;;15.00;;
7917;SDS011;4004;42.624;23.386;2023-02-15T09:46:47;21.00;;;15.60;;
7917;SDS011;4004;42.624;23.386;2023-02-15T09:49:27;22.77;;;16.37;;
7917;SDS011;4004;42.624;23.386;2023-02-15T09:52:10;19.87;;;15.23;;
7917;SDS011;4004;42.624;23.386;2023-02-15T09:54:49;21.47;;;15.90;;
7917;SDS011;4004;42.624;23.386;2023-02-15T09:57:33;21.17;;;16.87;;
7917;SDS011;4004;42.624;23.386;2023-02-15T10:00:09;20.00;;;16.23;;
7917;SDS011;4004;42.624;23.386;2023-02-15T10:02:54;19.40;;;15.80;;
7917;SDS011;4004;42.624;23.386;2023-02-15T10:05:38;28.77;;;16.77;;
7917;SDS011;4004;42.624;23.386;2023-02-15T10:11:15;22.30;;;16.90;;
7917;SDS011;4004;42.624;23.386;2023-02-15T10:14:10;23.23;;;17.00;;
7917;SDS011;4004;42.624;23.386;2023-02-15T10:16:54;24.07;;;17.60;;
7917;SDS011;4004;42.624;23.386;2023-02-15T10:19:30;25.00;;;18.37;;
7917;SDS011;4004;42.624;23.386;2023-02-15T10:22:10;22.20;;;17.13;;
7917;SDS011;4004;42.624;23.386;2023-02-15T10:24:54;31.00;;;15.90;;
7917;SDS011;4004;42.624;23.386;2023-02-15T10:27:32;21.00;;;16.77;;
7917;SDS011;4004;42.624;23.386;2023-02-15T10:30:06;21.17;;;16.10;;
7917;SDS011;4004;42.624;23.386;2023-02-15T10:32:37;30.23;;;17.57;;
7917;SDS011;4004;42.624;23.386;2023-02-15T10:35:13;23.20;;;17.53;;
7917;SDS011;4004;42.624;23.386;2023-02-15T10:37:49;21.53;;;17.03;;
7917;SDS011;4004;42.624;23.386;2023-02-15T10:40:28;21.83;;;16.80;;
7917;SDS011;4004;42.624;23.386;2023-02-15T10:43:07;24.93;;;17.07;;
7917;SDS011;4004;42.624;23.386;2023-02-15T10:45:46;19.67;;;15.90;;
7917;SDS011;4004;42.624;23.386;2023-02-15T10:51:29;24.87;;;17.30;;
7917;SDS011;4004;42.624;23.386;2023-02-15T10:54:09;24.33;;;16.33;;
7917;SDS011;4004;42.624;23.386;2023-02-15T10:56:49;20.43;;;17.43;;
7917;SDS011;4004;42.624;23.386;2023-02-15T10:59:30;21.57;;;16.67;;
7917;SDS011;4004;42.624;23.386;2023-02-15T11:02:16;19.07;;;15.97;;
7917;SDS011;4004;42.624;23.386;2023-02-15T11:04:53;27.03;;;18.13;;
7917;SDS011;4004;42.624;23.386;2023-02-15T11:07:26;26.17;;;18.60;;
7917;SDS011;4004;42.624;23.386;2023-02-15T11:10:00;21.40;;;16.57;;
7917;SDS011;4004;42.624;23.386;2023-02-15T11:12:33;20.03;;;15.57;;
7917;SDS011;4004;42.624;23.386;2023-02-15T11:15:01;25.53;;;17.27;;
7917;SDS011;4004;42.624;23.386;2023-02-15T11:17:39;21.93;;;17.30;;
7917;SDS011;4004;42.624;23.386;2023-02-15T11:20:14;26.43;;;18.60;;
7917;SDS011;4004;42.624;23.386;2023-02-15T11:22:46;23.97;;;18.40;;
7917;SDS011;4004;42.624;23.386;2023-02-15T11:25:17;23.97;;;19.47;;
7917;SDS011;4004;42.624;23.386;2023-02-15T11:27:47;26.27;;;17.90;;
7917;SDS011;4004;42.624;23.386;2023-02-15T11:30:17;25.70;;;17.70;;
7917;SDS011;4004;42.624;23.386;2023-02-15T11:32:49;23.47;;;19.47;;
7917;SDS011;4004;42.624;23.386;2023-02-15T11:35:20;31.60;;;19.80;;
7917;SDS011;4004;42.624;23.386;2023-02-15T11:37:54;21.67;;;17.70;;
7917;SDS011;4004;42.624;23.386;2023-02-15T11:40:28;26.90;;;18.63;;
7917;SDS011;4004;42.624;23.386;2023-02-15T11:42:58;24.60;;;18.13;;
7917;SDS011;4004;42.624;23.386;2023-02-15T11:45:30;21.90;;;18.10;;
7917;SDS011;4004;42.624;23.386;2023-02-15T11:47:59;23.57;;;18.57;;
7917;SDS011;4004;42.624;23.386;2023-02-15T11:50:28;23.97;;;18.43;;
7917;SDS011;4004;42.624;23.386;2023-02-15T11:52:58;24.60;;;17.00;;
7917;SDS011;4004;42.624;23.386;2023-02-15T11:55:26;25.80;;;17.63;;
7917;SDS011;4004;42.624;23.386;2023-02-15T11:57:55;30.70;;;18.80;;
7917;SDS011;4004;42.624;23.386;2023-02-15T12:00:30;31.00;;;21.73;;
7917;SDS011;4004;42.624;23.386;2023-02-15T12:03:03;22.37;;;17.33;;
7917;SDS011;4004;42.624;23.386;2023-02-15T12:05:40;23.43;;;17.00;;
7917;SDS011;4004;42.624;23.386;2023-02-15T12:08:18;26.40;;;18.13;;
7917;SDS011;4004;42.624;23.386;2023-02-15T12:10:53;25.43;;;17.93;;
7917;SDS011;4004;42.624;23.386;2023-02-15T12:13:25;23.23;;;17.40;;
7917;SDS011;4004;42.624;23.386;2023-02-15T12:15:52;25.67;;;19.37;;
7917;SDS011;4004;42.624;23.386;2023-02-15T12:18:24;24.90;;;18.07;;
7917;SDS011;4004;42.624;23.386;2023-02-15T12:21:00;23.10;;;17.53;;
7917;SDS011;4004;42.624;23.386;2023-02-15T12:23:30;24.43;;;19.13;;
7917;SDS011;4004;42.624;23.386;2023-02-15T12:25:59;23.97;;;17.13;;
7917;SDS011;4004;42.624;23.386;2023-02-15T12:28:29;44.23;;;32.10;;
7917;SDS011;4004;42.624;23.386;2023-02-15T12:30:59;28.83;;;21.03;;
7917;SDS011;4004;42.624;23.386;2023-02-15T12:33:31;25.27;;;20.43;;
7917;SDS011;4004;42.624;23.386;2023-02-15T12:36:02;26.40;;;19.57;;
7917;SDS011;4004;42.624;23.386;2023-02-15T12:38:35;29.77;;;20.33;;
7917;SDS011;4004;42.624;23.386;2023-02-15T12:41:04;29.63;;;21.03;;
7917;SDS011;4004;42.624;23.386;2023-02-15T12:43:32;29.07;;;19.60;;
7917;SDS011;4004;42.624;23.386;2023-02-15T12:46:13;30.97;;;21.37;;
7917;SDS011;4004;42.624;23.386;2023-02-15T12:48:46;31.70;;;21.80;;
7917;SDS011;4004;42.624;23.386;2023-02-15T12:51:13;26.00;;;19.47;;
7917;SDS011;4004;42.624;23.386;2023-02-15T12:53:41;26.00;;;21.13;;
7917;SDS011;4004;42.624;23.386;2023-02-15T12:56:09;28.80;;;20.13;;
7917;SDS011;4004;42.624;23.386;2023-02-15T12:58:36;31.83;;;20.63;;
7917;SDS011;4004;42.624;23.386;2023-02-15T13:01:09;32.80;;;19.47;;
7917;SDS011;4004;42.624;23.386;2023-02-15T13:03:38;25.47;;;20.07;;
7917;SDS011;4004;42.624;23.386;2023-02-15T13:06:21;30.17;;;20.03;;
7917;SDS011;4004;42.624;23.386;2023-02-15T13:08:49;29.53;;;19.57;;
7917;SDS011;4004;42.624;23.386;2023-02-15T13:11:19;30.37;;;21.53;;
7917;SDS011;4004;42.624;23.386;2023-02-15T13:13:50;29.77;;;20.70;;
7917;SDS011;4004;42.624;23.386;2023-02-15T13:16:21;29.30;;;20.33;;
7917;SDS011;4004;42.624;23.386;2023-02-15T13:18:56;29.47;;;21.47;;
7917;SDS011;4004;42.624;23.386;2023-02-15T13:21:26;31.73;;;21.50;;
7917;SDS011;4004;42.624;23.386;2023-02-15T13:24:00;29.73;;;20.30;;
7917;SDS011;4004;42.624;23.386;2023-02-15T13:26:31;26.30;;;20.67;;
7917;SDS011;4004;42.624;23.386;2023-02-15T13:29:01;46.13;;;22.43;;
7917;SDS011;4004;42.624;23.386;2023-02-15T13:31:33;30.50;;;21.00;;
7917;SDS011;4004;42.624;23.386;2023-02-15T13:34:02;26.43;;;19.93;;
7917;SDS011;4004;42.624;23.386;2023-02-15T13:36:38;26.70;;;19.43;;
7917;SDS011;4004;42.624;23.386;2023-02-15T13:39:15;25.27;;;20.57;;
7917;SDS011;4004;42.624;23.386;2023-02-15T13:41:53;26.53;;;19.30;;
7917;SDS011;4004;42.624;23.386;2023-02-15T13:44:28;23.63;;;19.33;;
7917;SDS011;4004;42.624;23.386;2023-02-15T13:47:16;30.37;;;20.37;;
7917;SDS011;4004;42.624;23.386;2023-02-15T13:49:52;26.43;;;19.50;;
7917;SDS011;4004;42.624;23.386;2023-02-15T13:52:31;27.87;;;21.10;;
7917;SDS011;4004;42.624;23.386;2023-02-15T13:55:15;25.17;;;20.83;;
7917;SDS011;4004;42.624;23.386;2023-02-15T13:57:56;25.37;;;19.67;;
7917;SDS011;4004;42.624;23.386;2023-02-15T14:00:47;23.13;;;18.27;;
7917;SDS011;4004;42.624;23.386;2023-02-15T14:06:18;27.17;;;20.13;;
7917;SDS011;4004;42.624;23.386;2023-02-15T14:09:01;27.30;;;20.83;;
7917;SDS011;4004;42.624;23.386;2023-02-15T14:11:41;28.23;;;20.23;;
7917;SDS011;4004;42.624;23.386;2023-02-15T14:14:25;27.20;;;20.77;;
7917;SDS011;4004;42.624;23.386;2023-02-15T14:17:07;36.87;;;19.60;;
7917;SDS011;4004;42.624;23.386;2023-02-15T14:19:43;27.13;;;20.33;;
7917;SDS011;4004;42.624;23.386;2023-02-15T14:22:17;28.70;;;20.23;;
7917;SDS011;4004;42.624;23.386;2023-02-15T14:24:55;28.37;;;18.80;;
7917;SDS011;4004;42.624;23.386;2023-02-15T14:27:39;30.07;;;20.83;;
7917;SDS011;4004;42.624;23.386;2023-02-15T14:30:13;27.60;;;20.33;;
7917;SDS011;4004;42.624;23.386;2023-02-15T14:32:45;26.30;;;20.40;;
7917;SDS011;4004;42.624;23.386;2023-02-15T14:35:16;31.27;;;20.90;;
7917;SDS011;4004;42.624;23.386;2023-02-15T14:37:45;36.70;;;21.83;;
7917;SDS011;4004;42.624;23.386;2023-02-15T14:40:23;30.13;;;22.93;;
7917;SDS011;4004;42.624;23.386;2023-02-15T14:43:18;28.03;;;21.03;;
7917;SDS011;4004;42.624;23.386;2023-02-15T14:45:53;28.20;;;20.93;;
7917;SDS011;4004;42.624;23.386;2023-02-15T14:48:21;26.17;;;20.77;;
7917;SDS011;4004;42.624;23.386;2023-02-15T14:50:55;31.23;;;20.80;;
7917;SDS011;4004;42.624;23.386;2023-02-15T14:53:33;28.67;;;20.13;;
7917;SDS011;4004;42.624;23.386;2023-02-15T14:56:19;26.53;;;21.23;;
7917;SDS011;4004;42.624;23.386;2023-02-15T14:59:07;31.93;;;21.40;;
7917;SDS011;4004;42.624;23.386;2023-02-15T15:01:55;29.67;;;21.47;;
7917;SDS011;4004;42.624;23.386;2023-02-15T15:04:25;31.17;;;22.87;;
7917;SDS011;4004;42.624;23.386;2023-02-15T15:07:04;33.30;;;22.90;;
7917;SDS011;4004;42.624;23.386;2023-02-15T15:09:40;30.10;;;22.13;;
7917;SDS011;4004;42.624;23.386;2023-02-15T15:12:37;34.83;;;23.23;;